Time;durP1;ratioP1;P1;durP2;ratioP2;P2;SDS_P1;SDS_P2;PMS_P1;PMS_P2;Temp;Humidity;BMP_temperature;BMP_pressure;BME280_temperature;BME280_humidity;BME280_pressure;Samples;Min_cycle;Max_cycle;Signal;HPM_P1;HPM_P2
2021/06/01 00:02:06;;;;;;;6.07;4.90;;;;;;;17.32;28.39;101621.84;4915891;28;97943;-75
2021/06/01 00:04:34;;;;;;;6.72;5.45;;;;;;;17.27;28.53;101620.00;4910097;28;99358;-75
2021/06/01 00:07:04;;;;;;;6.60;5.88;;;;;;;17.29;28.50;101624.50;4914534;28;99837;-74
2021/06/01 00:09:31;;;;;;;5.95;4.70;;;;;;;17.28;28.50;101622.69;4897108;28;97006;-75
2021/06/01 00:11:58;;;;;;;6.25;5.32;;;;;;;17.27;28.16;101628.06;4897201;28;97399;-75
2021/06/01 00:14:26;;;;;;;6.28;5.13;;;;;;;17.25;28.20;101625.38;4897443;28;98861;-74
2021/06/01 00:16:55;;;;;;;5.88;5.22;;;;;;;17.24;28.21;101620.88;4894747;28;97663;-75
2021/06/01 00:19:22;;;;;;;6.78;5.32;;;;;;;17.21;28.27;101618.19;4912807;28;97369;-75
2021/06/01 00:21:49;;;;;;;5.40;4.90;;;;;;;17.16;28.12;101625.31;4916064;28;97707;-76
2021/06/01 00:24:18;;;;;;;5.43;4.95;;;;;;;17.11;28.04;101618.09;4897757;28;98048;-75
2021/06/01 00:26:46;;;;;;;4.60;4.20;;;;;;;17.08;28.12;101625.25;4913364;28;97918;-75
2021/06/01 00:29:13;;;;;;;7.05;5.03;;;;;;;17.04;28.28;101620.72;4900430;28;97670;-76
2021/06/01 00:31:41;;;;;;;8.27;5.28;;;;;;;17.04;28.00;101614.44;4899054;28;97387;-75
2021/06/01 00:34:09;;;;;;;6.63;4.90;;;;;;;17.01;28.10;101614.44;4893968;28;100512;-74
2021/06/01 00:36:36;;;;;;;8.95;5.75;;;;;;;16.93;28.15;101630.50;4914877;28;99213;-76
2021/06/01 00:39:04;;;;;;;6.43;5.20;;;;;;;16.86;28.05;101625.97;4896800;28;96798;-75
2021/06/01 00:41:33;;;;;;;5.45;4.60;;;;;;;16.80;28.13;101627.69;4898419;28;97323;-75
2021/06/01 00:44:00;;;;;;;5.28;4.78;;;;;;;16.71;28.31;101623.13;4911469;28;99810;-75
2021/06/01 00:46:28;;;;;;;6.63;4.47;;;;;;;16.66;28.19;101626.63;4909585;28;98559;-75
2021/06/01 00:48:55;;;;;;;7.68;4.95;;;;;;;16.60;28.46;101629.25;4899953;28;97985;-75
2021/06/01 00:51:22;;;;;;;5.40;4.88;;;;;;;16.52;28.26;101618.44;4899709;28;97345;-75
2021/06/01 00:53:50;;;;;;;6.10;4.80;;;;;;;16.42;28.28;101629.06;4894718;28;99461;-75
2021/06/01 00:56:17;;;;;;;4.65;4.20;;;;;;;16.39;28.26;101621.88;4912914;28;99425;-74
2021/06/01 00:58:46;;;;;;;5.05;4.57;;;;;;;16.35;28.53;101622.72;4913087;28;97572;-74
2021/06/01 01:01:19;;;;;;;5.63;5.05;;;;;;;16.35;28.12;101622.72;4899619;28;97472;-75
2021/06/01 01:03:48;;;;;;;4.47;4.18;;;;;;;16.29;28.52;101616.41;4893866;28;99470;-74
2021/06/01 01:06:32;;;;;;;5.85;4.63;;;;;;;16.22;28.31;101618.09;4899568;28;98755;-73
2021/06/01 01:09:08;;;;;;;5.03;4.63;;;;;;;16.10;28.52;101616.16;4881354;28;97760;-75
2021/06/01 01:11:42;;;;;;;5.65;4.57;;;;;;;16.07;28.28;101616.13;4897237;28;97439;-75
2021/06/01 01:14:16;;;;;;;4.95;4.45;;;;;;;16.05;28.18;101611.63;4897136;28;97588;-74
2021/06/01 01:16:48;;;;;;;5.03;4.53;;;;;;;16.06;28.22;101618.81;4896751;28;97817;-74
2021/06/01 01:19:18;;;;;;;6.38;4.43;;;;;;;16.08;28.54;101615.28;4912794;28;97615;-75
2021/06/01 01:21:48;;;;;;;4.20;3.63;;;;;;;16.10;28.17;101610.78;4904102;28;97276;-74
2021/06/01 01:24:25;;;;;;;4.65;4.25;;;;;;;16.14;28.54;101606.41;4897532;28;99240;-74
2021/06/01 01:26:57;;;;;;;4.28;3.88;;;;;;;16.16;28.22;101612.66;4892836;28;99485;-75
2021/06/01 01:29:37;;;;;;;5.80;4.88;;;;;;;16.13;28.16;101606.34;4878320;28;97131;-74
2021/06/01 01:32:06;;;;;;;5.75;4.95;;;;;;;16.12;28.32;101613.53;4897340;28;98925;-75
2021/06/01 01:34:35;;;;;;;5.63;4.22;;;;;;;16.10;28.42;101602.75;4896886;28;99647;-75
2021/06/01 01:37:03;;;;;;;4.53;4.22;;;;;;;16.12;28.10;101607.25;4911658;28;99330;-74
2021/06/01 01:39:35;;;;;;;5.18;4.18;;;;;;;16.09;28.14;101609.00;4897407;28;97735;-73
2021/06/01 01:42:04;;;;;;;4.97;4.47;;;;;;;16.06;28.52;101609.00;4914556;28;97201;-74
2021/06/01 01:44:36;;;;;;;5.78;4.90;;;;;;;16.05;28.35;101612.53;4896498;28;97837;-75
2021/06/01 01:47:08;;;;;;;6.93;4.78;;;;;;;16.00;28.77;101611.59;4881197;28;100779;-74
2021/06/01 01:49:37;;;;;;;4.88;4.45;;;;;;;15.96;28.53;101606.09;4893437;28;98404;-74
2021/06/01 01:52:05;;;;;;;6.35;4.40;;;;;;;15.94;29.09;101611.47;4911868;28;98100;-74
2021/06/01 01:54:33;;;;;;;5.70;5.10;;;;;;;15.91;28.88;101605.16;4896621;28;99720;-75
2021/06/01 01:57:09;;;;;;;4.97;4.20;;;;;;;15.89;29.34;101604.25;4895956;28;100308;-74
2021/06/01 01:59:37;;;;;;;5.38;4.15;;;;;;;15.86;29.18;101605.13;4910140;28;97295;-74
2021/06/01 02:02:09;;;;;;;5.50;3.88;;;;;;;15.79;29.07;101605.94;4889908;28;97414;-74
2021/06/01 02:04:38;;;;;;;5.90;5.18;;;;;;;15.74;29.38;101602.25;4893584;28;99167;-74
2021/06/01 02:07:07;;;;;;;5.00;4.50;;;;;;;15.72;29.56;101598.66;4912054;28;97461;-74
2021/06/01 02:09:35;;;;;;;6.45;4.47;;;;;;;15.69;29.17;101600.41;4893578;28;99075;-74
2021/06/01 02:12:03;;;;;;;6.80;4.50;;;;;;;15.66;29.62;101585.19;4897106;28;97176;-74
2021/06/01 02:14:31;;;;;;;5.72;4.22;;;;;;;15.64;29.84;101592.31;4899449;28;99518;-73
2021/06/01 02:16:58;;;;;;;5.68;5.00;;;;;;;15.58;29.60;101594.91;4896508;28;99429;-75
2021/06/01 02:19:26;;;;;;;5.68;4.45;;;;;;;15.54;29.69;101595.72;4892143;28;97396;-76
2021/06/01 02:22:15;;;;;;;6.22;4.32;;;;;;;15.49;30.06;101591.19;4894044;28;97010;-75
2021/06/01 02:24:46;;;;;;;5.45;4.72;;;;;;;15.45;30.01;101595.59;4893628;28;97074;-74
2021/06/01 02:27:17;;;;;;;5.40;4.78;;;;;;;15.42;29.83;101598.25;4895535;28;98074;-74
2021/06/01 02:29:48;;;;;;;7.10;5.00;;;;;;;15.43;29.88;101597.34;4893448;28;97706;-75
2021/06/01 02:32:17;;;;;;;6.75;4.18;;;;;;;15.43;30.03;101596.47;4897123;28;97550;-74
2021/06/01 02:34:46;;;;;;;5.47;4.85;;;;;;;15.41;30.19;101598.25;4894028;28;98779;-75
2021/06/01 02:37:14;;;;;;;5.00;4.50;;;;;;;15.39;30.03;101584.81;4896518;28;100576;-74
2021/06/01 02:39:42;;;;;;;5.05;4.57;;;;;;;15.40;29.95;101599.09;4892368;28;97884;-75
2021/06/01 02:42:09;;;;;;;5.50;4.78;;;;;;;15.37;30.12;101601.75;4895721;28;98990;-75
2021/06/01 02:44:36;;;;;;;6.90;4.68;;;;;;;15.34;30.14;101596.34;4896209;28;98629;-74
2021/06/01 02:47:05;;;;;;;5.80;5.22;;;;;;;15.31;30.63;101599.88;4894095;28;100905;-75
2021/06/01 02:49:33;;;;;;;6.68;5.07;;;;;;;15.31;30.35;101597.19;4897253;28;97916;-75
2021/06/01 02:52:01;;;;;;;7.85;4.60;;;;;;;15.28;30.47;101597.13;4897721;28;96490;-73
2021/06/01 02:54:30;;;;;;;7.05;4.93;;;;;;;15.23;30.45;101596.13;4887686;28;99813;-76
2021/06/01 02:56:57;;;;;;;7.55;5.18;;;;;;;15.23;30.67;101596.13;4896659;28;96901;-74
2021/06/01 02:59:25;;;;;;;6.90;4.97;;;;;;;15.17;31.04;101594.25;4897991;28;97294;-74
2021/06/01 03:01:53;;;;;;;7.80;4.82;;;;;;;15.17;30.71;101593.38;4894069;28;97422;-74
2021/06/01 03:04:20;;;;;;;5.13;4.72;;;;;;;15.13;30.75;101589.75;4895975;28;99188;-73
2021/06/01 03:06:47;;;;;;;7.50;5.35;;;;;;;15.10;30.90;101583.44;4896373;28;99288;-74
2021/06/01 03:09:15;;;;;;;7.97;5.82;;;;;;;15.05;30.90;101587.81;4894247;28;97967;-74
2021/06/01 03:11:46;;;;;;;6.65;5.50;;;;;;;15.02;31.23;101585.09;4911989;28;97747;-74
2021/06/01 03:14:13;;;;;;;6.07;5.47;;;;;;;14.97;31.00;101585.00;4910112;28;100580;-73
2021/06/01 03:16:41;;;;;;;5.28;4.82;;;;;;;14.95;31.11;101585.88;4896077;28;99382;-75
2021/06/01 03:19:08;;;;;;;6.50;4.82;;;;;;;14.93;31.09;101588.53;4911081;28;96853;-75
2021/06/01 03:21:36;;;;;;;6.22;4.97;;;;;;;14.89;31.29;101585.78;4909612;28;96892;-75
2021/06/01 03:24:05;;;;;;;7.15;5.30;;;;;;;14.88;31.10;101583.97;4896283;28;98859;-74
2021/06/01 03:26:32;;;;;;;7.20;5.30;;;;;;;14.87;31.24;101592.88;4898086;28;97910;-74
2021/06/01 03:29:01;;;;;;;6.50;5.13;;;;;;;14.84;31.08;101587.47;4909926;28;98567;-72
2021/06/01 03:31:31;;;;;;;6.22;4.82;;;;;;;14.85;31.28;101582.13;4913439;28;97265;-72
2021/06/01 03:33:59;;;;;;;5.90;5.30;;;;;;;14.83;30.84;101580.31;4894558;28;99109;-72
2021/06/01 03:36:26;;;;;;;6.35;5.43;;;;;;;14.79;31.10;101575.78;4880459;28;99321;-72
2021/06/01 03:38:53;;;;;;;5.50;5.00;;;;;;;14.74;31.12;101580.16;4895956;28;97693;-70
2021/06/01 03:41:20;;;;;;;7.47;5.55;;;;;;;14.74;30.95;101585.50;4894934;28;97532;-71
2021/06/01 03:43:48;;;;;;;5.38;4.88;;;;;;;14.74;30.96;101581.06;4896471;28;101830;-68
2021/06/01 03:46:16;;;;;;;6.72;5.65;;;;;;;14.73;31.19;101581.03;4910366;28;99371;-68
2021/06/01 03:48:44;;;;;;;5.65;4.60;;;;;;;14.68;31.15;101590.78;4887373;28;98450;-68
2021/06/01 03:51:11;;;;;;;6.53;5.10;;;;;;;14.65;31.06;101580.91;4890377;28;97138;-68
2021/06/01 03:53:38;;;;;;;7.30;5.20;;;;;;;14.63;30.93;101576.38;4907825;28;98300;-67
2021/06/01 03:56:06;;;;;;;6.45;5.18;;;;;;;14.60;30.97;101579.94;4896917;28;97618;-67
2021/06/01 03:58:34;;;;;;;8.60;5.57;;;;;;;14.57;31.09;101576.31;4892690;28;96859;-68
2021/06/01 04:01:01;;;;;;;8.00;5.72;;;;;;;14.54;30.96;101573.50;4906789;28;97002;-67
2021/06/01 04:03:30;;;;;;;5.97;5.47;;;;;;;14.55;30.88;101576.28;4859671;28;97644;-68
2021/06/01 04:05:57;;;;;;;7.70;5.65;;;;;;;14.55;31.05;101584.31;4894192;28;97005;-67
2021/06/01 04:08:24;;;;;;;7.15;5.40;;;;;;;14.60;31.02;101584.38;4893718;28;97520;-68
2021/06/01 04:10:52;;;;;;;6.00;5.38;;;;;;;14.67;30.95;101584.53;4893622;28;97342;-67
2021/06/01 04:13:19;;;;;;;6.32;5.57;;;;;;;14.74;30.91;101581.06;4907991;28;101043;-68
2021/06/01 04:15:47;;;;;;;6.50;5.15;;;;;;;14.80;30.72;101585.63;4887854;28;97592;-67
2021/06/01 04:18:14;;;;;;;19.02;13.93;;;;;;;14.88;30.67;101578.63;4890684;28;97748;-68
2021/06/01 04:20:43;;;;;;;10.10;6.93;;;;;;;14.95;30.63;101586.78;4908408;28;97704;-68
2021/06/01 04:23:10;;;;;;;9.75;5.60;;;;;;;15.01;30.41;101580.59;4882465;28;99829;-68
2021/06/01 04:25:38;;;;;;;5.90;5.00;;;;;;;15.09;30.21;101578.94;4894450;28;100701;-67
2021/06/01 04:28:05;;;;;;;6.50;5.50;;;;;;;15.14;30.59;101575.47;4895752;28;98071;-67
2021/06/01 04:30:33;;;;;;;9.77;4.90;;;;;;;15.23;30.66;101577.34;4891857;28;96905;-68
2021/06/01 04:33:01;;;;;;;74.57;35.00;;;;;;;15.27;30.13;101579.22;4892820;28;97892;-68
2021/06/01 04:35:28;;;;;;;35.95;21.67;;;;;;;15.34;30.12;101586.50;4894358;28;98948;-69
2021/06/01 04:37:57;;;;;;;12.07;7.57;;;;;;;15.42;30.19;101573.19;4893215;28;97172;-68
2021/06/01 04:40:24;;;;;;;8.00;5.72;;;;;;;15.49;30.01;101578.69;4890034;28;97555;-67
2021/06/01 04:42:52;;;;;;;6.65;5.93;;;;;;;15.52;30.08;101576.03;4909081;28;98233;-67
2021/06/01 04:45:20;;;;;;;10.30;6.70;;;;;;;15.58;30.16;101576.13;4887092;28;98298;-68
2021/06/01 04:47:47;;;;;;;7.10;5.93;;;;;;;15.64;29.97;101572.63;4887619;28;97694;-68
2021/06/01 04:50:16;;;;;;;7.60;6.35;;;;;;;15.69;30.04;101576.25;4880961;28;97544;-67
2021/06/01 04:52:43;;;;;;;29.77;18.35;;;;;;;15.71;30.12;101577.16;4891807;28;97799;-67
2021/06/01 04:55:13;;;;;;;48.50;26.58;;;;;;;15.76;30.08;101576.34;4901330;28;99006;-67
2021/06/01 04:57:41;;;;;;;12.55;7.95;;;;;;;15.81;29.75;101574.63;4906529;28;97360;-67
2021/06/01 05:00:10;;;;;;;8.57;6.80;;;;;;;15.85;30.10;101576.47;4903727;28;96979;-68
2021/06/01 05:02:38;;;;;;;8.18;6.30;;;;;;;15.87;29.86;101572.00;4881860;28;100413;-68
2021/06/01 05:05:06;;;;;;;8.02;7.18;;;;;;;15.85;30.11;101576.47;4902930;28;99257;-67
2021/06/01 05:07:34;;;;;;;6.50;5.90;;;;;;;15.88;29.75;101575.59;4905090;28;97740;-67
2021/06/01 05:10:03;;;;;;;8.40;6.45;;;;;;;15.90;29.99;101573.84;4892105;28;97138;-68
2021/06/01 05:12:31;;;;;;;6.97;6.22;;;;;;;15.92;29.91;101572.97;4895013;28;98152;-68
2021/06/01 05:14:59;;;;;;;9.05;6.80;;;;;;;15.95;30.09;101575.69;4896344;28;100938;-68
2021/06/01 05:17:27;;;;;;;8.10;6.45;;;;;;;15.99;29.78;101571.28;4896004;28;97854;-68
2021/06/01 05:19:54;;;;;;;7.93;6.10;;;;;;;16.04;29.87;101575.84;4898897;28;97851;-67
2021/06/01 05:22:22;;;;;;;11.65;6.65;;;;;;;16.09;30.05;101571.41;4896873;28;99761;-68
2021/06/01 05:24:49;;;;;;;10.10;7.38;;;;;;;16.09;29.86;101568.72;4897949;28;97565;-67
2021/06/01 05:27:16;;;;;;;9.32;6.72;;;;;;;16.09;29.80;101566.03;4897603;28;96855;-68
2021/06/01 05:29:49;;;;;;;9.25;7.00;;;;;;;16.11;29.95;101574.09;4913402;28;97617;-69
2021/06/01 05:35:04;;;;;;;10.10;6.68;;;;;;;16.25;30.07;101566.22;4899226;28;97092;-67
2021/06/01 05:37:34;;;;;;;7.00;6.30;;;;;;;16.32;29.55;101576.13;4881987;28;96938;-68
2021/06/01 05:40:02;;;;;;;8.38;6.70;;;;;;;16.38;29.58;101573.53;4897470;28;97143;-68
2021/06/01 05:42:29;;;;;;;7.82;7.00;;;;;;;16.40;29.52;101567.25;4899745;28;96961;-68
2021/06/01 05:44:58;;;;;;;6.72;6.13;;;;;;;16.42;29.52;101572.63;4880718;28;99444;-67
2021/06/01 05:47:25;;;;;;;12.88;8.15;;;;;;;16.45;29.54;101570.00;4898481;28;97206;-67
2021/06/01 05:49:53;;;;;;;10.38;7.40;;;;;;;16.49;29.86;101571.84;4897103;28;98205;-68
2021/06/01 05:52:20;;;;;;;11.52;8.10;;;;;;;16.51;29.88;101578.09;4898989;28;97767;-67
2021/06/01 05:54:47;;;;;;;10.93;8.05;;;;;;;16.57;29.77;101564.72;4898769;28;97609;-68
2021/06/01 05:57:15;;;;;;;11.90;7.65;;;;;;;16.62;29.73;101565.66;4895820;28;96975;-68
2021/06/01 05:59:42;;;;;;;10.38;7.30;;;;;;;16.64;29.87;101567.50;4913517;28;97741;-67
2021/06/01 06:02:10;;;;;;;8.98;7.57;;;;;;;16.72;29.61;101559.53;4898261;28;97739;-68
2021/06/01 06:04:38;;;;;;;12.35;7.18;;;;;;;16.77;29.51;101568.53;4898713;28;97669;-69
2021/06/01 06:07:05;;;;;;;10.60;7.32;;;;;;;16.85;29.45;101566.81;4896750;28;97966;-68
2021/06/01 06:09:32;;;;;;;7.20;6.50;;;;;;;16.90;29.49;101570.41;4898116;28;98128;-67
2021/06/01 06:12:02;;;;;;;8.15;7.10;;;;;;;16.98;29.43;101576.78;4898572;28;97930;-68
2021/06/01 06:14:29;;;;;;;8.35;6.90;;;;;;;17.02;29.36;101576.78;4897697;28;99344;-67
2021/06/01 06:17:00;;;;;;;9.95;8.35;;;;;;;17.08;29.35;101576.84;4912688;28;96862;-68
2021/06/01 06:19:29;;;;;;;8.27;6.80;;;;;;;17.15;29.17;101580.47;4896481;28;97636;-68
2021/06/01 06:21:56;;;;;;;9.43;7.68;;;;;;;17.25;29.26;101578.75;4898751;28;97648;-68
2021/06/01 06:24:24;;;;;;;11.95;7.88;;;;;;;17.32;29.21;101580.56;4895616;28;100820;-68
2021/06/01 06:26:51;;;;;;;15.00;7.18;;;;;;;17.37;29.37;101582.41;4913757;28;97375;-67
2021/06/01 06:29:20;;;;;;;10.60;8.00;;;;;;;17.43;29.34;101578.88;4881053;28;96961;-67
2021/06/01 06:31:47;;;;;;;11.80;7.72;;;;;;;17.50;29.32;101581.63;4911996;28;98048;-67
2021/06/01 06:34:14;;;;;;;10.18;7.05;;;;;;;17.57;29.40;101578.06;4899059;28;97874;-68
2021/06/01 06:36:43;;;;;;;11.45;8.13;;;;;;;17.61;29.43;101581.66;4912825;28;98275;-67
2021/06/01 06:39:10;;;;;;;12.25;6.63;;;;;;;17.67;29.29;101577.22;4897197;28;97442;-68
2021/06/01 06:41:37;;;;;;;9.35;7.13;;;;;;;17.74;29.10;101576.34;4894870;28;98896;-68
2021/06/01 06:44:08;;;;;;;78.38;39.55;;;;;;;17.83;29.25;101576.41;4898511;28;99139;-68
2021/06/01 06:46:40;;;;;;;39.90;23.33;;;;;;;17.87;29.22;101578.22;4910549;28;97453;-68
2021/06/01 06:49:08;;;;;;;23.17;16.65;;;;;;;17.97;29.17;101565.66;4895469;28;97403;-68
2021/06/01 06:51:39;;;;;;;20.48;13.85;;;;;;;18.01;29.22;101572.84;4898806;28;98410;-68
2021/06/01 06:54:08;;;;;;;26.50;14.55;;;;;;;18.12;28.87;101578.31;4896333;28;99356;-68
2021/06/01 06:56:35;;;;;;;19.38;11.68;;;;;;;18.18;28.94;101581.03;4913216;28;97283;-67
2021/06/01 06:59:02;;;;;;;51.67;33.83;;;;;;;18.27;28.82;101572.97;4896180;28;98810;-67
2021/06/01 07:01:31;;;;;;;14.85;11.73;;;;;;;18.28;28.81;101575.66;4896980;28;97726;-68
2021/06/01 07:04:00;;;;;;;14.40;10.20;;;;;;;18.34;28.63;101572.06;4898071;28;98668;-68
2021/06/01 07:06:27;;;;;;;10.93;8.27;;;;;;;18.39;28.60;101573.88;4895977;28;98061;-68
2021/06/01 07:08:54;;;;;;;13.25;10.52;;;;;;;18.28;29.77;101578.34;4894300;28;98003;-68
2021/06/01 07:11:23;;;;;;;11.63;8.98;;;;;;;18.45;29.40;101578.38;4898632;28;99559;-68
2021/06/01 07:13:52;;;;;;;13.30;8.68;;;;;;;18.52;29.44;101574.78;4896043;28;97568;-68
2021/06/01 07:16:20;;;;;;;12.82;10.32;;;;;;;18.58;29.11;101566.72;4898245;28;97922;-68
2021/06/01 07:18:47;;;;;;;19.13;13.65;;;;;;;18.66;29.21;101564.94;4895414;28;97568;-68
2021/06/01 07:21:15;;;;;;;14.82;10.45;;;;;;;18.72;29.21;101562.25;4880757;28;100460;-67
2021/06/01 07:23:42;;;;;;;11.68;8.90;;;;;;;18.80;29.17;101563.16;4896900;28;98630;-68
2021/06/01 07:26:10;;;;;;;13.68;10.18;;;;;;;18.85;29.06;101564.97;4896238;28;97374;-68
2021/06/01 07:28:39;;;;;;;13.60;11.65;;;;;;;18.94;28.84;101555.94;4896140;28;98395;-68
2021/06/01 07:31:12;;;;;;;14.75;10.77;;;;;;;19.00;28.64;101551.47;4894145;28;100493;-68
2021/06/01 07:33:44;;;;;;;11.90;8.38;;;;;;;19.07;28.56;101552.34;4898422;28;97574;-68
2021/06/01 07:36:12;;;;;;;17.60;10.27;;;;;;;19.17;29.05;101550.53;4896941;28;96941;-68
2021/06/01 07:38:39;;;;;;;12.45;8.02;;;;;;;19.21;28.83;101549.63;4897868;28;97316;-67
2021/06/01 07:41:07;;;;;;;7.32;6.63;;;;;;;19.26;28.63;101554.13;4911546;28;97804;-68
2021/06/01 07:43:35;;;;;;;13.50;8.00;;;;;;;19.28;28.53;101552.28;4896697;28;97603;-68
2021/06/01 07:46:04;;;;;;;8.82;7.72;;;;;;;19.39;28.70;101545.09;4898894;28;97912;-67
2021/06/01 07:48:35;;;;;;;12.48;10.00;;;;;;;19.46;28.39;101554.97;4912843;28;97479;-68
2021/06/01 07:51:03;;;;;;;14.00;8.60;;;;;;;19.55;28.67;101554.97;4902010;28;99810;-68
2021/06/01 07:53:31;;;;;;;12.10;8.02;;;;;;;19.61;28.27;101546.81;4896853;28;99863;-67
2021/06/01 07:55:59;;;;;;;11.18;6.90;;;;;;;19.68;28.29;101551.28;4896152;28;97152;-68
2021/06/01 07:58:27;;;;;;;8.00;6.70;;;;;;;19.73;28.02;101544.09;4895773;28;97177;-68
2021/06/01 08:00:54;;;;;;;10.63;7.65;;;;;;;19.79;28.02;101544.03;4896553;28;98008;-68
2021/06/01 08:03:22;;;;;;;9.15;7.22;;;;;;;19.86;28.53;101540.38;4911738;28;99436;-67
2021/06/01 08:05:51;;;;;;;14.27;7.65;;;;;;;19.94;28.07;101534.97;4912397;28;98169;-68
2021/06/01 08:08:19;;;;;;;9.30;8.25;;;;;;;19.97;28.10;101538.56;4897870;28;97298;-68
2021/06/01 08:10:47;;;;;;;9.32;7.05;;;;;;;20.01;28.14;101534.03;4882720;28;99500;-67
2021/06/01 08:13:15;;;;;;;6.13;5.60;;;;;;;20.10;27.89;101538.50;4901358;28;97739;-68
2021/06/01 08:15:48;;;;;;;13.82;10.48;;;;;;;20.19;28.02;101533.03;4881840;28;98561;-67
2021/06/01 08:18:17;;;;;;;62.03;41.92;;;;;;;20.25;27.87;101533.03;4914733;28;97221;-68
2021/06/01 08:20:55;;;;;;;27.60;18.42;;;;;;;20.29;27.46;101534.75;4898258;28;100326;-68
2021/06/01 08:23:22;;;;;;;30.85;19.08;;;;;;;20.35;27.28;101538.34;4898813;28;99288;-68
2021/06/01 08:25:50;;;;;;;11.63;9.05;;;;;;;20.39;27.72;101539.22;4899520;28;96843;-69
2021/06/01 08:28:17;;;;;;;8.90;7.68;;;;;;;20.42;27.13;101526.56;4899828;28;97281;-68
2021/06/01 08:30:44;;;;;;;7.20;6.15;;;;;;;20.47;27.06;101527.41;4900485;28;97560;-67
2021/06/01 08:33:12;;;;;;;7.82;6.15;;;;;;;20.50;26.98;101523.81;4900562;28;97581;-68
2021/06/01 08:35:39;;;;;;;6.75;6.05;;;;;;;20.55;26.89;101520.19;4897108;28;97649;-68
2021/06/01 08:38:08;;;;;;;7.15;6.40;;;;;;;20.40;26.96;101517.56;4899549;28;97352;-69
2021/06/01 08:40:35;;;;;;;7.18;6.47;;;;;;;20.64;26.80;101514.69;4899770;28;97829;-68
2021/06/01 08:43:15;;;;;;;13.15;8.00;;;;;;;20.76;26.97;101520.00;4898470;28;97690;-67
2021/06/01 08:45:49;;;;;;;9.77;8.80;;;;;;;20.80;26.63;101512.75;4898491;28;97317;-70
2021/06/01 08:48:18;;;;;;;7.72;5.97;;;;;;;20.85;26.52;101509.09;4899337;28;98056;-68
2021/06/01 08:50:50;;;;;;;6.82;6.13;;;;;;;20.89;27.03;101502.72;4899804;28;97645;-68
2021/06/01 08:53:19;;;;;;;6.72;6.05;;;;;;;20.94;26.80;101506.28;4897648;28;99530;-69
2021/06/01 08:55:47;;;;;;;6.38;5.88;;;;;;;21.01;26.65;101509.84;4900646;28;96815;-68
2021/06/01 08:58:16;;;;;;;10.77;7.10;;;;;;;21.08;26.59;101511.56;4899139;28;97632;-68
2021/06/01 09:00:44;;;;;;;6.90;6.30;;;;;;;21.12;26.44;101501.63;4896350;28;100070;-68
2021/06/01 09:03:14;;;;;;;9.10;6.80;;;;;;;21.17;26.50;101507.88;4900109;28;97623;-68
2021/06/01 09:06:04;;;;;;;8.70;6.18;;;;;;;21.25;26.68;101501.47;4898046;28;97651;-69
2021/06/01 09:09:07;;;;;;;9.77;7.15;;;;;;;21.28;26.75;101504.16;4907956;28;97379;-67
2021/06/01 09:11:43;;;;;;;8.07;6.15;;;;;;;21.31;26.52;101495.97;4896770;28;100666;-68
2021/06/01 09:14:48;;;;;;;8.35;6.60;;;;;;;21.33;26.49;101493.25;4898754;28;99945;-68
2021/06/01 09:23:10;;;;;;;70.13;47.65;;;;;;;21.51;26.17;101493.03;4898468;28;101212;-68
2021/06/01 09:25:41;;;;;;;20.52;14.40;;;;;;;21.53;26.41;101489.38;4898321;28;97558;-69
2021/06/01 09:28:10;;;;;;;10.10;9.10;;;;;;;21.62;26.40;101489.25;4899159;28;96995;-68
2021/06/01 09:30:40;;;;;;;7.47;6.68;;;;;;;21.64;26.34;101484.72;4897616;28;97201;-68
2021/06/01 09:33:09;;;;;;;9.80;6.50;;;;;;;21.70;26.03;101481.06;4899085;28;99377;-68
2021/06/01 09:35:41;;;;;;;6.80;6.13;;;;;;;21.76;25.95;101484.59;4897923;28;99229;-68
2021/06/01 09:38:08;;;;;;;10.20;6.28;;;;;;;21.82;25.82;101480.88;4881275;28;97113;-68
2021/06/01 09:40:36;;;;;;;6.45;5.55;;;;;;;21.86;25.74;101477.22;4898640;28;96926;-68
2021/06/01 09:43:07;;;;;;;15.65;6.35;;;;;;;21.93;25.86;101470.78;4899074;28;99125;-68
2021/06/01 09:45:34;;;;;;;7.28;6.10;;;;;;;21.95;25.90;101474.38;4898015;28;97952;-67
2021/06/01 09:48:04;;;;;;;11.23;6.00;;;;;;;21.87;25.93;101466.34;4897683;28;96850;-68
2021/06/01 09:50:36;;;;;;;8.13;6.07;;;;;;;21.82;25.90;101460.13;4899253;28;97728;-68
2021/06/01 09:53:06;;;;;;;11.02;6.90;;;;;;;21.80;25.96;101453.81;4912153;28;98897;-68
2021/06/01 09:55:40;;;;;;;10.05;6.43;;;;;;;21.85;26.01;101453.78;4897814;28;99154;-68
2021/06/01 09:58:12;;;;;;;4.95;4.55;;;;;;;21.87;25.97;101446.50;4899410;28;97701;-68
2021/06/01 10:00:41;;;;;;;6.65;6.03;;;;;;;21.94;25.76;101440.94;4898137;28;96891;-68
2021/06/01 10:06:19;;;;;;;6.35;5.85;;;;;;;22.12;25.65;101444.31;5413503;23;99747;-67
2021/06/01 10:08:48;;;;;;;9.02;5.68;;;;;;;22.19;25.47;101430.63;4723237;29;98948;-68
2021/06/01 10:11:16;;;;;;;22.05;17.38;;;;;;;22.23;25.59;101432.38;4714312;29;97051;-69
2021/06/01 10:13:45;;;;;;;21.58;19.25;;;;;;;22.28;25.47;101433.22;4717840;29;100842;-67
2021/06/01 10:16:16;;;;;;;15.68;10.60;;;;;;;22.35;25.40;101431.28;4716236;29;97626;-69
2021/06/01 10:18:45;;;;;;;9.98;6.55;;;;;;;22.38;25.46;101431.25;4729809;29;97083;-69
2021/06/01 10:21:14;;;;;;;6.63;6.03;;;;;;;22.43;25.31;101421.22;4730374;29;97442;-68
2021/06/01 10:23:44;;;;;;;7.65;6.10;;;;;;;22.43;25.28;101429.34;4732065;29;97052;-69
2021/06/01 10:26:13;;;;;;;6.15;5.55;;;;;;;22.46;25.08;101430.19;4729139;29;99088;-67
2021/06/01 10:28:43;;;;;;;8.30;6.07;;;;;;;22.54;25.05;101424.63;4732228;29;96964;-67
2021/06/01 10:31:14;;;;;;;5.95;5.45;;;;;;;22.58;24.86;101427.22;4730082;29;97301;-67
2021/06/01 10:33:44;;;;;;;8.82;5.47;;;;;;;22.61;24.75;101423.59;4731347;29;96804;-67
2021/06/01 10:36:31;;;;;;;6.32;4.80;;;;;;;22.66;24.80;101418.97;4731098;29;100388;-67
2021/06/01 10:44:49;;;;;;;6.40;5.80;;;;;;;22.63;24.35;101414.50;4729374;29;98128;-68
2021/06/01 10:50:27;;;;;;;7.20;5.32;;;;;;;23.09;24.00;101409.09;4731777;29;96916;-68
2021/06/01 10:53:07;;;;;;;5.28;4.80;;;;;;;23.20;23.84;101398.91;4731016;29;97988;-69
2021/06/01 10:56:01;;;;;;;5.85;5.35;;;;;;;23.19;23.82;101399.81;4729058;29;101064;-69
2021/06/01 10:58:56;;;;;;;6.63;6.03;;;;;;;23.03;23.69;101401.06;4728961;29;98057;-69
2021/06/01 11:04:15;;;;;;;7.15;6.22;;;;;;;23.05;23.26;101396.50;4729971;29;96901;-69
2021/06/01 11:10:05;;;;;;;6.38;5.78;;;;;;;23.23;23.26;101379.81;4728658;29;98302;-70
2021/06/01 11:12:46;;;;;;;25.98;20.80;;;;;;;23.35;23.17;101381.38;4731186;29;97603;-68
2021/06/01 11:15:23;;;;;;;36.83;30.70;;;;;;;23.52;23.03;101377.38;4731349;29;98024;-70
2021/06/01 11:18:20;;;;;;;9.60;8.68;;;;;;;23.82;23.26;101371.22;4727712;29;98538;-70
2021/06/01 11:21:13;;;;;;;7.18;5.80;;;;;;;23.91;23.29;101367.44;4730579;29;99263;-70
2021/06/01 11:35:31;;;;;;;20.50;15.48;;;;;;;24.12;22.63;101371.41;4727689;29;96895;-68
2021/06/01 11:38:06;;;;;;;9.13;7.70;;;;;;;23.79;22.99;101378.53;4729838;29;97906;-70
2021/06/01 11:40:39;;;;;;;8.02;7.20;;;;;;;23.75;23.23;101377.72;4730555;29;98197;-69
2021/06/01 11:43:07;;;;;;;7.95;6.93;;;;;;;23.78;22.80;101376.78;4731530;29;97876;-69
2021/06/01 11:45:43;;;;;;;6.60;6.00;;;;;;;23.86;23.02;101366.63;4731147;29;97564;-69
2021/06/01 11:48:24;;;;;;;6.97;6.28;;;;;;;23.95;22.63;101363.69;4733714;29;97955;-68
2021/06/01 11:51:13;;;;;;;6.63;6.03;;;;;;;24.02;22.61;101357.19;4731423;29;100742;-69
2021/06/01 11:53:49;;;;;;;7.90;7.10;;;;;;;24.12;22.75;101357.81;4746749;29;98619;-70
2021/06/01 11:56:32;;;;;;;8.30;7.50;;;;;;;24.14;22.90;101353.22;4732159;29;97946;-68
2021/06/01 12:02:10;;;;;;;10.03;8.40;;;;;;;24.27;22.81;101349.25;4733553;29;99172;-69
2021/06/01 12:04:50;;;;;;;8.20;6.70;;;;;;;24.36;22.12;101338.13;4731817;29;98667;-68
2021/06/01 12:13:10;;;;;;;7.82;6.72;;;;;;;24.54;21.44;101332.22;4732523;29;97915;-69
2021/06/01 12:18:28;;;;;;;6.87;5.90;;;;;;;24.67;21.41;101333.66;4733012;29;97668;-69
2021/06/01 12:20:56;;;;;;;6.30;5.70;;;;;;;24.78;21.85;101323.34;4746860;29;97030;-69
2021/06/01 12:23:34;;;;;;;6.00;5.40;;;;;;;24.90;21.70;101314.84;4730209;29;99130;-68
2021/06/01 12:26:10;;;;;;;6.73;6.00;;;;;;;24.99;21.05;101317.31;4744624;29;100485;-69